sensor_id;sensor_type;location;lat;lon;timestamp;temperature;humidity
4813;DHT22;2420;51.202;8.698;2024-03-02T00:02:19;2.40;1.00
4813;DHT22;2420;51.202;8.698;2024-03-02T00:04:45;2.20;1.00
4813;DHT22;2420;51.202;8.698;2024-03-02T00:07:14;2.20;1.00
4813;DHT22;2420;51.202;8.698;2024-03-02T00:09:40;2.10;1.00
4813;DHT22;2420;51.202;8.698;2024-03-02T00:12:05;2.10;1.00
4813;DHT22;2420;51.202;8.698;2024-03-02T00:14:31;2.10;1.00
4813;DHT22;2420;51.202;8.698;2024-03-02T00:16:57;2.10;1.00
4813;DHT22;2420;51.202;8.698;2024-03-02T00:19:23;2.10;1.00
4813;DHT22;2420;51.202;8.698;2024-03-02T00:21:49;2.10;1.00
4813;DHT22;2420;51.202;8.698;2024-03-02T00:24:34;2.10;1.00
4813;DHT22;2420;51.202;8.698;2024-03-02T00:27:04;2.30;1.00
4813;DHT22;2420;51.202;8.698;2024-03-02T00:29:29;2.50;1.00
4813;DHT22;2420;51.202;8.698;2024-03-02T00:31:55;3.00;1.00
4813;DHT22;2420;51.202;8.698;2024-03-02T00:34:21;3.10;1.00
4813;DHT22;2420;51.202;8.698;2024-03-02T00:36:47;3.10;1.00
4813;DHT22;2420;51.202;8.698;2024-03-02T00:39:15;3.00;1.00
4813;DHT22;2420;51.202;8.698;2024-03-02T00:41:42;3.10;1.00
4813;DHT22;2420;51.202;8.698;2024-03-02T00:44:12;2.90;1.00
4813;DHT22;2420;51.202;8.698;2024-03-02T00:46:39;3.20;1.00
4813;DHT22;2420;51.202;8.698;2024-03-02T00:49:23;3.10;1.00
4813;DHT22;2420;51.202;8.698;2024-03-02T00:51:51;3.30;1.00
4813;DHT22;2420;51.202;8.698;2024-03-02T00:54:22;3.30;1.00
4813;DHT22;2420;51.202;8.698;2024-03-02T00:56:50;3.30;1.00
4813;DHT22;2420;51.202;8.698;2024-03-02T00:59:16;3.50;1.00
4813;DHT22;2420;51.202;8.698;2024-03-02T01:01:42;3.50;1.00
4813;DHT22;2420;51.202;8.698;2024-03-02T01:04:08;3.50;1.00
4813;DHT22;2420;51.202;8.698;2024-03-02T01:06:35;3.40;1.00
4813;DHT22;2420;51.202;8.698;2024-03-02T01:09:00;3.40;1.00
4813;DHT22;2420;51.202;8.698;2024-03-02T01:11:26;3.60;1.00
4813;DHT22;2420;51.202;8.698;2024-03-02T01:13:52;3.60;1.00
4813;DHT22;2420;51.202;8.698;2024-03-02T01:16:17;3.60;1.00
4813;DHT22;2420;51.202;8.698;2024-03-02T01:18:43;3.60;1.00
4813;DHT22;2420;51.202;8.698;2024-03-02T01:21:09;3.60;1.00
4813;DHT22;2420;51.202;8.698;2024-03-02T01:23:35;3.80;1.00
4813;DHT22;2420;51.202;8.698;2024-03-02T01:26:00;3.50;1.00
4813;DHT22;2420;51.202;8.698;2024-03-02T01:28:26;3.40;1.00
4813;DHT22;2420;51.202;8.698;2024-03-02T01:30:51;3.30;1.00
4813;DHT22;2420;51.202;8.698;2024-03-02T01:33:18;3.30;1.00
4813;DHT22;2420;51.202;8.698;2024-03-02T01:35:44;3.00;1.00
4813;DHT22;2420;51.202;8.698;2024-03-02T01:38:10;3.00;1.00
4813;DHT22;2420;51.202;8.698;2024-03-02T01:40:37;2.90;1.00
4813;DHT22;2420;51.202;8.698;2024-03-02T01:43:07;3.00;1.00
4813;DHT22;2420;51.202;8.698;2024-03-02T01:45:33;2.90;1.00
4813;DHT22;2420;51.202;8.698;2024-03-02T01:48:00;3.00;1.00
4813;DHT22;2420;51.202;8.698;2024-03-02T01:50:31;3.20;1.00
4813;DHT22;2420;51.202;8.698;2024-03-02T01:52:57;3.30;1.00
4813;DHT22;2420;51.202;8.698;2024-03-02T01:55:22;3.20;1.00
4813;DHT22;2420;51.202;8.698;2024-03-02T01:57:52;3.00;1.00
4813;DHT22;2420;51.202;8.698;2024-03-02T02:00:20;3.10;1.00
4813;DHT22;2420;51.202;8.698;2024-03-02T02:02:49;3.10;1.00
4813;DHT22;2420;51.202;8.698;2024-03-02T02:05:16;3.10;1.00
4813;DHT22;2420;51.202;8.698;2024-03-02T02:07:42;3.30;1.00
4813;DHT22;2420;51.202;8.698;2024-03-02T02:10:09;3.30;1.00
4813;DHT22;2420;51.202;8.698;2024-03-02T02:12:35;3.40;1.00
4813;DHT22;2420;51.202;8.698;2024-03-02T02:15:00;3.60;1.00
4813;DHT22;2420;51.202;8.698;2024-03-02T02:17:26;3.50;1.00
4813;DHT22;2420;51.202;8.698;2024-03-02T02:19:52;3.70;1.00
4813;DHT22;2420;51.202;8.698;2024-03-02T02:22:17;3.70;1.00
4813;DHT22;2420;51.202;8.698;2024-03-02T02:24:43;4.00;1.00
4813;DHT22;2420;51.202;8.698;2024-03-02T02:27:09;3.80;1.00
4813;DHT22;2420;51.202;8.698;2024-03-02T02:29:35;3.90;1.00
4813;DHT22;2420;51.202;8.698;2024-03-02T02:32:01;3.90;1.00
4813;DHT22;2420;51.202;8.698;2024-03-02T02:34:27;4.00;1.00
4813;DHT22;2420;51.202;8.698;2024-03-02T02:36:53;4.10;1.00
4813;DHT22;2420;51.202;8.698;2024-03-02T02:39:21;4.30;1.00
4813;DHT22;2420;51.202;8.698;2024-03-02T02:41:47;4.20;1.00
4813;DHT22;2420;51.202;8.698;2024-03-02T02:44:13;4.20;1.00
4813;DHT22;2420;51.202;8.698;2024-03-02T02:46:40;4.30;1.00
4813;DHT22;2420;51.202;8.698;2024-03-02T02:49:05;4.30;1.00
4813;DHT22;2420;51.202;8.698;2024-03-02T02:51:31;4.20;1.00
4813;DHT22;2420;51.202;8.698;2024-03-02T02:53:57;4.40;1.00
4813;DHT22;2420;51.202;8.698;2024-03-02T02:56:22;4.50;1.00
4813;DHT22;2420;51.202;8.698;2024-03-02T02:58:48;4.30;1.00
4813;DHT22;2420;51.202;8.698;2024-03-02T03:01:15;4.50;1.00
4813;DHT22;2420;51.202;8.698;2024-03-02T03:03:43;4.20;1.00
4813;DHT22;2420;51.202;8.698;2024-03-02T03:06:09;4.70;1.00
4813;DHT22;2420;51.202;8.698;2024-03-02T03:08:35;4.70;1.00
4813;DHT22;2420;51.202;8.698;2024-03-02T03:11:00;4.40;1.00
4813;DHT22;2420;51.202;8.698;2024-03-02T03:13:26;4.40;1.00
4813;DHT22;2420;51.202;8.698;2024-03-02T03:15:52;4.50;1.00
4813;DHT22;2420;51.202;8.698;2024-03-02T03:18:18;4.30;1.00
4813;DHT22;2420;51.202;8.698;2024-03-02T03:20:44;4.40;1.00
4813;DHT22;2420;51.202;8.698;2024-03-02T03:23:09;4.40;1.00
4813;DHT22;2420;51.202;8.698;2024-03-02T03:25:40;4.70;1.00
4813;DHT22;2420;51.202;8.698;2024-03-02T03:28:06;4.70;1.00
4813;DHT22;2420;51.202;8.698;2024-03-02T03:30:31;4.50;1.00
4813;DHT22;2420;51.202;8.698;2024-03-02T03:32:57;4.60;1.00
4813;DHT22;2420;51.202;8.698;2024-03-02T03:35:22;4.70;1.00
4813;DHT22;2420;51.202;8.698;2024-03-02T03:37:48;4.70;1.00
4813;DHT22;2420;51.202;8.698;2024-03-02T03:40:14;4.70;1.00
4813;DHT22;2420;51.202;8.698;2024-03-02T03:42:39;4.70;1.00
4813;DHT22;2420;51.202;8.698;2024-03-02T03:45:06;4.70;1.00
4813;DHT22;2420;51.202;8.698;2024-03-02T03:47:32;4.80;1.00
4813;DHT22;2420;51.202;8.698;2024-03-02T03:49:58;4.60;1.00
4813;DHT22;2420;51.202;8.698;2024-03-02T03:52:24;4.60;1.00
4813;DHT22;2420;51.202;8.698;2024-03-02T03:54:50;4.60;1.00
4813;DHT22;2420;51.202;8.698;2024-03-02T03:57:16;4.80;1.00
4813;DHT22;2420;51.202;8.698;2024-03-02T03:59:42;4.60;1.00
4813;DHT22;2420;51.202;8.698;2024-03-02T04:02:08;4.90;1.00
4813;DHT22;2420;51.202;8.698;2024-03-02T04:04:34;4.60;1.00
4813;DHT22;2420;51.202;8.698;2024-03-02T04:07:00;4.60;1.00
4813;DHT22;2420;51.202;8.698;2024-03-02T04:09:25;4.60;1.00
4813;DHT22;2420;51.202;8.698;2024-03-02T04:11:51;4.60;1.00
4813;DHT22;2420;51.202;8.698;2024-03-02T04:14:17;4.50;1.00
4813;DHT22;2420;51.202;8.698;2024-03-02T04:16:42;4.80;1.00
4813;DHT22;2420;51.202;8.698;2024-03-02T04:19:08;4.60;1.00
4813;DHT22;2420;51.202;8.698;2024-03-02T04:21:34;4.70;1.00
4813;DHT22;2420;51.202;8.698;2024-03-02T04:23:59;4.70;1.00
4813;DHT22;2420;51.202;8.698;2024-03-02T04:26:28;4.60;1.00
4813;DHT22;2420;51.202;8.698;2024-03-02T04:28:53;4.60;1.00
4813;DHT22;2420;51.202;8.698;2024-03-02T04:31:20;4.80;1.00
4813;DHT22;2420;51.202;8.698;2024-03-02T04:33:46;4.70;1.00
4813;DHT22;2420;51.202;8.698;2024-03-02T04:36:11;4.50;1.00
4813;DHT22;2420;51.202;8.698;2024-03-02T04:38:38;4.60;1.00
4813;DHT22;2420;51.202;8.698;2024-03-02T04:41:07;4.70;1.00
4813;DHT22;2420;51.202;8.698;2024-03-02T04:43:33;4.90;1.00
4813;DHT22;2420;51.202;8.698;2024-03-02T04:45:59;4.80;1.00
4813;DHT22;2420;51.202;8.698;2024-03-02T04:48:25;4.50;1.00
4813;DHT22;2420;51.202;8.698;2024-03-02T04:50:50;4.80;1.00
4813;DHT22;2420;51.202;8.698;2024-03-02T04:53:16;4.60;1.00
4813;DHT22;2420;51.202;8.698;2024-03-02T04:55:42;4.70;1.00
4813;DHT22;2420;51.202;8.698;2024-03-02T04:58:07;4.80;1.00
4813;DHT22;2420;51.202;8.698;2024-03-02T05:00:33;4.70;1.00
4813;DHT22;2420;51.202;8.698;2024-03-02T05:02:59;4.50;1.00
4813;DHT22;2420;51.202;8.698;2024-03-02T05:05:25;4.70;1.00
4813;DHT22;2420;51.202;8.698;2024-03-02T05:07:50;4.70;1.00
4813;DHT22;2420;51.202;8.698;2024-03-02T05:10:16;4.70;1.00
4813;DHT22;2420;51.202;8.698;2024-03-02T05:12:41;4.50;1.00
4813;DHT22;2420;51.202;8.698;2024-03-02T05:15:22;4.50;1.00
4813;DHT22;2420;51.202;8.698;2024-03-02T05:17:47;4.80;1.00
4813;DHT22;2420;51.202;8.698;2024-03-02T05:20:13;4.50;1.00
4813;DHT22;2420;51.202;8.698;2024-03-02T05:22:39;4.80;1.00
4813;DHT22;2420;51.202;8.698;2024-03-02T05:25:06;4.70;1.00
4813;DHT22;2420;51.202;8.698;2024-03-02T05:27:32;4.80;1.00
4813;DHT22;2420;51.202;8.698;2024-03-02T05:29:58;4.70;1.00
4813;DHT22;2420;51.202;8.698;2024-03-02T05:32:24;5.00;1.00
4813;DHT22;2420;51.202;8.698;2024-03-02T05:34:49;5.00;1.00
4813;DHT22;2420;51.202;8.698;2024-03-02T05:37:16;4.70;1.00
4813;DHT22;2420;51.202;8.698;2024-03-02T05:39:41;4.70;1.00
4813;DHT22;2420;51.202;8.698;2024-03-02T05:42:08;4.80;1.00
4813;DHT22;2420;51.202;8.698;2024-03-02T05:44:35;4.80;1.00
4813;DHT22;2420;51.202;8.698;2024-03-02T05:47:00;4.70;1.00
4813;DHT22;2420;51.202;8.698;2024-03-02T05:49:26;4.70;1.00
4813;DHT22;2420;51.202;8.698;2024-03-02T05:51:51;4.70;1.00
4813;DHT22;2420;51.202;8.698;2024-03-02T05:54:17;4.90;1.00
4813;DHT22;2420;51.202;8.698;2024-03-02T05:56:43;4.90;1.00
4813;DHT22;2420;51.202;8.698;2024-03-02T05:59:09;4.70;1.00
4813;DHT22;2420;51.202;8.698;2024-03-02T06:01:45;4.90;1.00
4813;DHT22;2420;51.202;8.698;2024-03-02T06:04:17;4.80;1.00
4813;DHT22;2420;51.202;8.698;2024-03-02T06:06:43;5.00;1.00
4813;DHT22;2420;51.202;8.698;2024-03-02T06:09:09;5.00;1.00
4813;DHT22;2420;51.202;8.698;2024-03-02T06:11:39;5.00;1.00
4813;DHT22;2420;51.202;8.698;2024-03-02T06:14:05;4.80;1.00
4813;DHT22;2420;51.202;8.698;2024-03-02T06:16:32;4.80;1.00
4813;DHT22;2420;51.202;8.698;2024-03-02T06:18:58;4.80;1.00
4813;DHT22;2420;51.202;8.698;2024-03-02T06:21:24;4.80;1.00
4813;DHT22;2420;51.202;8.698;2024-03-02T06:23:50;4.90;1.00
4813;DHT22;2420;51.202;8.698;2024-03-02T06:26:16;4.90;1.00
4813;DHT22;2420;51.202;8.698;2024-03-02T06:28:41;4.70;1.00
4813;DHT22;2420;51.202;8.698;2024-03-02T06:31:07;4.80;1.00
4813;DHT22;2420;51.202;8.698;2024-03-02T06:33:33;5.00;1.00
4813;DHT22;2420;51.202;8.698;2024-03-02T06:35:58;4.90;1.00
4813;DHT22;2420;51.202;8.698;2024-03-02T06:38:24;4.70;1.00
4813;DHT22;2420;51.202;8.698;2024-03-02T06:40:49;4.90;1.00
4813;DHT22;2420;51.202;8.698;2024-03-02T06:43:15;4.90;1.00
4813;DHT22;2420;51.202;8.698;2024-03-02T06:45:41;4.80;1.00
4813;DHT22;2420;51.202;8.698;2024-03-02T06:48:07;4.80;1.00
4813;DHT22;2420;51.202;8.698;2024-03-02T06:50:33;4.70;1.00
4813;DHT22;2420;51.202;8.698;2024-03-02T06:52:59;4.90;1.00
4813;DHT22;2420;51.202;8.698;2024-03-02T06:55:25;4.80;1.00
4813;DHT22;2420;51.202;8.698;2024-03-02T06:57:51;4.80;1.00
4813;DHT22;2420;51.202;8.698;2024-03-02T07:00:18;4.80;1.00
4813;DHT22;2420;51.202;8.698;2024-03-02T07:02:44;4.70;1.00
4813;DHT22;2420;51.202;8.698;2024-03-02T07:05:10;4.80;1.00
4813;DHT22;2420;51.202;8.698;2024-03-02T07:07:35;4.70;1.00
4813;DHT22;2420;51.202;8.698;2024-03-02T07:10:05;4.80;1.00
4813;DHT22;2420;51.202;8.698;2024-03-02T07:12:32;4.80;1.00
4813;DHT22;2420;51.202;8.698;2024-03-02T07:15:02;5.00;1.00
4813;DHT22;2420;51.202;8.698;2024-03-02T07:17:27;5.00;1.00
4813;DHT22;2420;51.202;8.698;2024-03-02T07:19:53;4.80;1.00
4813;DHT22;2420;51.202;8.698;2024-03-02T07:22:19;5.00;1.00
4813;DHT22;2420;51.202;8.698;2024-03-02T07:24:48;4.90;1.00
4813;DHT22;2420;51.202;8.698;2024-03-02T07:27:15;5.10;1.00
4813;DHT22;2420;51.202;8.698;2024-03-02T07:29:41;5.10;1.00
4813;DHT22;2420;51.202;8.698;2024-03-02T07:32:07;4.90;1.00
4813;DHT22;2420;51.202;8.698;2024-03-02T07:34:33;5.00;1.00
4813;DHT22;2420;51.202;8.698;2024-03-02T07:36:59;5.10;1.00
4813;DHT22;2420;51.202;8.698;2024-03-02T07:39:24;5.20;1.00
4813;DHT22;2420;51.202;8.698;2024-03-02T07:41:50;5.40;1.00
4813;DHT22;2420;51.202;8.698;2024-03-02T07:44:16;5.20;1.00
4813;DHT22;2420;51.202;8.698;2024-03-02T07:46:44;5.00;1.00
4813;DHT22;2420;51.202;8.698;2024-03-02T07:49:12;5.20;1.00
4813;DHT22;2420;51.202;8.698;2024-03-02T07:51:39;5.20;1.00
4813;DHT22;2420;51.202;8.698;2024-03-02T07:54:05;5.20;1.00
4813;DHT22;2420;51.202;8.698;2024-03-02T07:56:31;5.50;1.00
4813;DHT22;2420;51.202;8.698;2024-03-02T07:58:57;5.40;1.00
4813;DHT22;2420;51.202;8.698;2024-03-02T08:01:27;5.20;1.00
4813;DHT22;2420;51.202;8.698;2024-03-02T08:03:53;5.50;1.00
4813;DHT22;2420;51.202;8.698;2024-03-02T08:06:18;5.40;1.00
4813;DHT22;2420;51.202;8.698;2024-03-02T08:08:47;5.50;1.00
4813;DHT22;2420;51.202;8.698;2024-03-02T08:11:12;5.70;1.00
4813;DHT22;2420;51.202;8.698;2024-03-02T08:13:38;6.00;1.00
4813;DHT22;2420;51.202;8.698;2024-03-02T08:16:04;5.90;1.00
4813;DHT22;2420;51.202;8.698;2024-03-02T08:18:33;6.00;1.00
4813;DHT22;2420;51.202;8.698;2024-03-02T08:20:58;5.60;1.00
4813;DHT22;2420;51.202;8.698;2024-03-02T08:23:24;6.20;1.00
4813;DHT22;2420;51.202;8.698;2024-03-02T08:25:49;6.10;1.00
4813;DHT22;2420;51.202;8.698;2024-03-02T08:28:15;6.20;1.00
4813;DHT22;2420;51.202;8.698;2024-03-02T08:30:41;6.20;1.00
4813;DHT22;2420;51.202;8.698;2024-03-02T08:33:07;6.50;1.00
4813;DHT22;2420;51.202;8.698;2024-03-02T08:35:32;6.50;1.00
4813;DHT22;2420;51.202;8.698;2024-03-02T08:38:02;6.40;1.00
4813;DHT22;2420;51.202;8.698;2024-03-02T08:40:29;6.10;1.00
4813;DHT22;2420;51.202;8.698;2024-03-02T08:42:54;6.50;1.00
4813;DHT22;2420;51.202;8.698;2024-03-02T08:45:23;6.20;1.00
4813;DHT22;2420;51.202;8.698;2024-03-02T08:47:48;6.50;1.00
4813;DHT22;2420;51.202;8.698;2024-03-02T08:50:14;6.30;1.00
4813;DHT22;2420;51.202;8.698;2024-03-02T08:52:40;6.50;1.00
4813;DHT22;2420;51.202;8.698;2024-03-02T08:55:06;6.80;1.00
4813;DHT22;2420;51.202;8.698;2024-03-02T08:57:35;6.60;1.00
4813;DHT22;2420;51.202;8.698;2024-03-02T09:00:01;6.60;1.00
4813;DHT22;2420;51.202;8.698;2024-03-02T09:02:27;6.30;1.00
4813;DHT22;2420;51.202;8.698;2024-03-02T09:04:52;6.30;1.00
4813;DHT22;2420;51.202;8.698;2024-03-02T09:07:18;6.70;1.00
4813;DHT22;2420;51.202;8.698;2024-03-02T09:09:44;6.80;1.00
4813;DHT22;2420;51.202;8.698;2024-03-02T09:12:09;6.90;1.00
4813;DHT22;2420;51.202;8.698;2024-03-02T09:14:36;6.80;1.00
4813;DHT22;2420;51.202;8.698;2024-03-02T09:17:02;6.70;1.00
4813;DHT22;2420;51.202;8.698;2024-03-02T09:19:29;6.80;1.00
4813;DHT22;2420;51.202;8.698;2024-03-02T09:21:54;6.50;1.00
4813;DHT22;2420;51.202;8.698;2024-03-02T09:24:21;6.80;1.00
4813;DHT22;2420;51.202;8.698;2024-03-02T09:26:47;6.90;1.00
4813;DHT22;2420;51.202;8.698;2024-03-02T09:29:12;6.90;1.00
4813;DHT22;2420;51.202;8.698;2024-03-02T09:31:42;7.20;1.00
4813;DHT22;2420;51.202;8.698;2024-03-02T09:34:08;7.00;1.00
4813;DHT22;2420;51.202;8.698;2024-03-02T09:36:33;7.20;1.00
4813;DHT22;2420;51.202;8.698;2024-03-02T09:38:59;7.30;1.00
4813;DHT22;2420;51.202;8.698;2024-03-02T09:41:25;7.40;1.00
4813;DHT22;2420;51.202;8.698;2024-03-02T09:43:51;7.50;1.00
4813;DHT22;2420;51.202;8.698;2024-03-02T09:46:16;7.60;1.00
4813;DHT22;2420;51.202;8.698;2024-03-02T09:48:44;7.50;1.00
4813;DHT22;2420;51.202;8.698;2024-03-02T09:51:10;7.50;1.00
4813;DHT22;2420;51.202;8.698;2024-03-02T09:53:36;7.60;1.00
4813;DHT22;2420;51.202;8.698;2024-03-02T09:56:02;7.70;1.00
4813;DHT22;2420;51.202;8.698;2024-03-02T09:58:29;7.60;1.00
4813;DHT22;2420;51.202;8.698;2024-03-02T10:00:55;7.70;1.00
4813;DHT22;2420;51.202;8.698;2024-03-02T10:03:25;7.70;1.00
4813;DHT22;2420;51.202;8.698;2024-03-02T10:05:52;7.80;1.00
4813;DHT22;2420;51.202;8.698;2024-03-02T10:08:17;7.90;1.00
4813;DHT22;2420;51.202;8.698;2024-03-02T10:10:43;7.90;1.00
4813;DHT22;2420;51.202;8.698;2024-03-02T10:13:10;8.00;1.00
4813;DHT22;2420;51.202;8.698;2024-03-02T10:15:37;8.00;1.00
4813;DHT22;2420;51.202;8.698;2024-03-02T10:18:04;8.00;1.00
4813;DHT22;2420;51.202;8.698;2024-03-02T10:20:30;8.10;1.00
4813;DHT22;2420;51.202;8.698;2024-03-02T10:23:13;8.30;1.00
4813;DHT22;2420;51.202;8.698;2024-03-02T10:25:39;8.60;1.00
4813;DHT22;2420;51.202;8.698;2024-03-02T10:28:04;8.60;1.00
4813;DHT22;2420;51.202;8.698;2024-03-02T10:30:33;8.80;1.00
4813;DHT22;2420;51.202;8.698;2024-03-02T10:33:01;8.90;1.00
4813;DHT22;2420;51.202;8.698;2024-03-02T10:35:27;9.10;1.00
4813;DHT22;2420;51.202;8.698;2024-03-02T10:37:53;9.10;1.00
4813;DHT22;2420;51.202;8.698;2024-03-02T10:40:21;9.30;1.00
4813;DHT22;2420;51.202;8.698;2024-03-02T10:42:48;9.40;1.00
4813;DHT22;2420;51.202;8.698;2024-03-02T10:45:16;9.30;1.00
4813;DHT22;2420;51.202;8.698;2024-03-02T10:47:43;9.40;1.00
4813;DHT22;2420;51.202;8.698;2024-03-02T10:50:09;9.40;1.00
4813;DHT22;2420;51.202;8.698;2024-03-02T10:52:36;9.40;1.00
4813;DHT22;2420;51.202;8.698;2024-03-02T10:55:02;9.50;1.00
4813;DHT22;2420;51.202;8.698;2024-03-02T10:57:35;9.60;1.00
4813;DHT22;2420;51.202;8.698;2024-03-02T11:00:06;9.60;1.00
4813;DHT22;2420;51.202;8.698;2024-03-02T11:02:35;9.60;1.00
4813;DHT22;2420;51.202;8.698;2024-03-02T11:05:05;9.60;1.00
4813;DHT22;2420;51.202;8.698;2024-03-02T11:07:33;9.60;1.00
4813;DHT22;2420;51.202;8.698;2024-03-02T11:10:01;9.70;1.00
4813;DHT22;2420;51.202;8.698;2024-03-02T11:12:38;9.80;1.00
4813;DHT22;2420;51.202;8.698;2024-03-02T11:15:10;9.80;1.00
4813;DHT22;2420;51.202;8.698;2024-03-02T11:17:36;9.80;1.00
4813;DHT22;2420;51.202;8.698;2024-03-02T11:20:03;10.00;1.00
4813;DHT22;2420;51.202;8.698;2024-03-02T11:22:30;10.00;1.00
4813;DHT22;2420;51.202;8.698;2024-03-02T11:24:55;10.10;1.00
4813;DHT22;2420;51.202;8.698;2024-03-02T11:33:04;10.40;1.00
4813;DHT22;2420;51.202;8.698;2024-03-02T11:35:43;10.40;1.00
4813;DHT22;2420;51.202;8.698;2024-03-02T11:38:09;10.50;1.00
4813;DHT22;2420;51.202;8.698;2024-03-02T11:40:35;10.50;1.00
4813;DHT22;2420;51.202;8.698;2024-03-02T11:43:01;10.30;1.00
4813;DHT22;2420;51.202;8.698;2024-03-02T11:45:27;10.40;1.00
4813;DHT22;2420;51.202;8.698;2024-03-02T11:47:57;10.40;1.00
4813;DHT22;2420;51.202;8.698;2024-03-02T11:50:42;10.40;1.00
4813;DHT22;2420;51.202;8.698;2024-03-02T11:53:11;10.40;1.00
4813;DHT22;2420;51.202;8.698;2024-03-02T11:55:38;10.50;1.00
4813;DHT22;2420;51.202;8.698;2024-03-02T11:58:12;10.60;1.00
4813;DHT22;2420;51.202;8.698;2024-03-02T12:00:38;10.60;1.00
4813;DHT22;2420;51.202;8.698;2024-03-02T12:03:09;10.60;1.00
4813;DHT22;2420;51.202;8.698;2024-03-02T12:05:35;10.70;1.00
4813;DHT22;2420;51.202;8.698;2024-03-02T12:08:03;10.70;1.00
4813;DHT22;2420;51.202;8.698;2024-03-02T12:10:30;10.80;1.00
4813;DHT22;2420;51.202;8.698;2024-03-02T12:13:02;10.80;1.00
4813;DHT22;2420;51.202;8.698;2024-03-02T12:15:32;10.90;1.00
4813;DHT22;2420;51.202;8.698;2024-03-02T12:17:59;10.70;1.00
4813;DHT22;2420;51.202;8.698;2024-03-02T12:20:27;10.70;1.00
4813;DHT22;2420;51.202;8.698;2024-03-02T12:22:55;10.60;1.00
4813;DHT22;2420;51.202;8.698;2024-03-02T12:25:22;10.50;1.00
4813;DHT22;2420;51.202;8.698;2024-03-02T12:27:50;10.50;1.00
4813;DHT22;2420;51.202;8.698;2024-03-02T12:30:19;10.50;1.00
4813;DHT22;2420;51.202;8.698;2024-03-02T12:32:46;10.60;1.00
4813;DHT22;2420;51.202;8.698;2024-03-02T12:35:12;10.80;1.00
4813;DHT22;2420;51.202;8.698;2024-03-02T12:37:48;10.80;1.00
4813;DHT22;2420;51.202;8.698;2024-03-02T12:40:14;10.60;1.00
4813;DHT22;2420;51.202;8.698;2024-03-02T12:42:41;10.70;1.00
4813;DHT22;2420;51.202;8.698;2024-03-02T12:45:09;10.60;1.00
4813;DHT22;2420;51.202;8.698;2024-03-02T12:47:35;10.60;1.00
4813;DHT22;2420;51.202;8.698;2024-03-02T12:50:02;10.70;1.00
4813;DHT22;2420;51.202;8.698;2024-03-02T12:52:29;10.80;1.00
4813;DHT22;2420;51.202;8.698;2024-03-02T12:54:54;10.80;1.00
4813;DHT22;2420;51.202;8.698;2024-03-02T12:57:28;10.80;1.00
4813;DHT22;2420;51.202;8.698;2024-03-02T12:59:58;10.70;1.00
4813;DHT22;2420;51.202;8.698;2024-03-02T13:02:28;10.70;1.00
4813;DHT22;2420;51.202;8.698;2024-03-02T13:04:54;10.60;1.00
4813;DHT22;2420;51.202;8.698;2024-03-02T13:07:20;10.60;1.00
4813;DHT22;2420;51.202;8.698;2024-03-02T13:09:48;10.90;1.00
4813;DHT22;2420;51.202;8.698;2024-03-02T13:12:15;10.90;1.00
4813;DHT22;2420;51.202;8.698;2024-03-02T13:14:41;10.90;1.00
4813;DHT22;2420;51.202;8.698;2024-03-02T13:17:08;10.90;1.00
4813;DHT22;2420;51.202;8.698;2024-03-02T13:19:34;11.00;1.00
4813;DHT22;2420;51.202;8.698;2024-03-02T13:22:00;11.00;1.00
4813;DHT22;2420;51.202;8.698;2024-03-02T13:24:27;11.10;1.00
4813;DHT22;2420;51.202;8.698;2024-03-02T13:26:56;11.20;1.00
4813;DHT22;2420;51.202;8.698;2024-03-02T13:29:23;11.20;1.00
4813;DHT22;2420;51.202;8.698;2024-03-02T13:31:49;11.20;1.00
4813;DHT22;2420;51.202;8.698;2024-03-02T13:34:15;11.10;1.00
4813;DHT22;2420;51.202;8.698;2024-03-02T13:36:41;11.10;1.00
4813;DHT22;2420;51.202;8.698;2024-03-02T13:39:07;11.10;1.00
4813;DHT22;2420;51.202;8.698;2024-03-02T13:41:35;11.20;1.00
4813;DHT22;2420;51.202;8.698;2024-03-02T13:44:01;11.20;1.00
4813;DHT22;2420;51.202;8.698;2024-03-02T13:46:27;11.30;1.00
4813;DHT22;2420;51.202;8.698;2024-03-02T13:48:53;11.20;1.00
4813;DHT22;2420;51.202;8.698;2024-03-02T13:51:19;11.20;1.00
4813;DHT22;2420;51.202;8.698;2024-03-02T13:53:45;11.20;1.00
4813;DHT22;2420;51.202;8.698;2024-03-02T13:56:10;11.30;1.00
4813;DHT22;2420;51.202;8.698;2024-03-02T13:58:37;11.20;1.00
4813;DHT22;2420;51.202;8.698;2024-03-02T14:01:03;11.30;1.00
4813;DHT22;2420;51.202;8.698;2024-03-02T14:03:30;11.40;1.00
4813;DHT22;2420;51.202;8.698;2024-03-02T14:05:55;11.30;1.00
4813;DHT22;2420;51.202;8.698;2024-03-02T14:08:21;11.40;1.00
4813;DHT22;2420;51.202;8.698;2024-03-02T14:10:47;11.30;1.00
4813;DHT22;2420;51.202;8.698;2024-03-02T14:13:13;11.30;1.00
4813;DHT22;2420;51.202;8.698;2024-03-02T14:15:38;11.30;1.00
4813;DHT22;2420;51.202;8.698;2024-03-02T14:18:06;11.30;1.00
4813;DHT22;2420;51.202;8.698;2024-03-02T14:20:31;11.40;1.00
4813;DHT22;2420;51.202;8.698;2024-03-02T14:22:58;11.50;1.00
4813;DHT22;2420;51.202;8.698;2024-03-02T14:25:28;11.50;1.00
4813;DHT22;2420;51.202;8.698;2024-03-02T14:27:57;11.50;1.00
4813;DHT22;2420;51.202;8.698;2024-03-02T14:30:23;11.50;1.00
4813;DHT22;2420;51.202;8.698;2024-03-02T14:32:49;11.60;1.00
4813;DHT22;2420;51.202;8.698;2024-03-02T14:35:14;11.70;1.00
4813;DHT22;2420;51.202;8.698;2024-03-02T14:37:40;11.80;1.00
4813;DHT22;2420;51.202;8.698;2024-03-02T14:40:07;11.80;1.00
4813;DHT22;2420;51.202;8.698;2024-03-02T14:42:35;11.70;1.00
4813;DHT22;2420;51.202;8.698;2024-03-02T14:45:01;11.60;1.00
4813;DHT22;2420;51.202;8.698;2024-03-02T14:47:29;11.60;1.00
4813;DHT22;2420;51.202;8.698;2024-03-02T14:49:55;11.60;1.00
4813;DHT22;2420;51.202;8.698;2024-03-02T14:52:21;11.70;1.00
4813;DHT22;2420;51.202;8.698;2024-03-02T14:54:46;11.70;1.00
4813;DHT22;2420;51.202;8.698;2024-03-02T14:57:12;11.70;1.00
4813;DHT22;2420;51.202;8.698;2024-03-02T14:59:38;11.60;1.00
4813;DHT22;2420;51.202;8.698;2024-03-02T15:02:04;11.60;1.00
4813;DHT22;2420;51.202;8.698;2024-03-02T15:04:30;11.60;1.00
4813;DHT22;2420;51.202;8.698;2024-03-02T15:06:56;11.60;1.00
4813;DHT22;2420;51.202;8.698;2024-03-02T15:09:21;11.60;1.00
4813;DHT22;2420;51.202;8.698;2024-03-02T15:11:47;11.50;1.00
4813;DHT22;2420;51.202;8.698;2024-03-02T15:14:13;11.50;1.00
4813;DHT22;2420;51.202;8.698;2024-03-02T15:16:39;11.40;1.00
4813;DHT22;2420;51.202;8.698;2024-03-02T15:19:04;11.30;1.00
4813;DHT22;2420;51.202;8.698;2024-03-02T15:21:30;11.30;1.00
4813;DHT22;2420;51.202;8.698;2024-03-02T15:23:55;11.20;1.00
4813;DHT22;2420;51.202;8.698;2024-03-02T15:26:21;11.20;1.00
4813;DHT22;2420;51.202;8.698;2024-03-02T15:28:46;11.10;1.00
4813;DHT22;2420;51.202;8.698;2024-03-02T15:31:12;11.10;1.00
4813;DHT22;2420;51.202;8.698;2024-03-02T15:33:38;11.00;1.00
4813;DHT22;2420;51.202;8.698;2024-03-02T15:36:04;10.90;1.00
4813;DHT22;2420;51.202;8.698;2024-03-02T15:38:30;10.90;1.00
4813;DHT22;2420;51.202;8.698;2024-03-02T15:40:57;10.80;1.00
4813;DHT22;2420;51.202;8.698;2024-03-02T15:43:22;10.80;1.00
4813;DHT22;2420;51.202;8.698;2024-03-02T15:45:49;10.70;1.00
4813;DHT22;2420;51.202;8.698;2024-03-02T15:48:15;10.70;1.00
4813;DHT22;2420;51.202;8.698;2024-03-02T15:50:40;10.70;1.00
4813;DHT22;2420;51.202;8.698;2024-03-02T16:22:37;10.60;1.00
4813;DHT22;2420;51.202;8.698;2024-03-02T16:25:03;9.90;1.00
4813;DHT22;2420;51.202;8.698;2024-03-02T16:27:30;9.90;1.00
4813;DHT22;2420;51.202;8.698;2024-03-02T16:29:55;9.80;1.00
4813;DHT22;2420;51.202;8.698;2024-03-02T16:32:23;9.70;1.00
4813;DHT22;2420;51.202;8.698;2024-03-02T16:34:48;9.60;1.00
4813;DHT22;2420;51.202;8.698;2024-03-02T16:37:14;9.50;1.00
4813;DHT22;2420;51.202;8.698;2024-03-02T16:39:39;9.40;1.00
4813;DHT22;2420;51.202;8.698;2024-03-02T16:42:05;9.30;1.00
4813;DHT22;2420;51.202;8.698;2024-03-02T16:44:31;9.50;1.00
4813;DHT22;2420;51.202;8.698;2024-03-02T16:46:56;9.60;1.00
4813;DHT22;2420;51.202;8.698;2024-03-02T16:49:22;9.60;1.00
4813;DHT22;2420;51.202;8.698;2024-03-02T16:51:47;9.60;1.00
4813;DHT22;2420;51.202;8.698;2024-03-02T16:54:13;9.60;1.00
4813;DHT22;2420;51.202;8.698;2024-03-02T16:56:39;9.60;1.00
4813;DHT22;2420;51.202;8.698;2024-03-02T16:59:05;9.40;1.00
4813;DHT22;2420;51.202;8.698;2024-03-02T17:01:32;9.30;1.00